createdAt,value
2023-04-01T00:00:00.999Z,20.60
2023-04-01T00:02:30.231Z,21.20
2023-04-01T00:16:27.440Z,21.60
2023-04-01T00:18:56.044Z,23.10
2023-04-01T00:21:24.544Z,21.80
2023-04-01T00:23:52.861Z,22.40
2023-04-01T00:26:22.541Z,21.80
2023-04-01T00:28:51.056Z,23.40
2023-04-01T00:31:19.401Z,21.50
2023-04-01T00:33:47.800Z,22.80
2023-04-01T00:36:18.366Z,21.40
2023-04-01T00:38:48.045Z,22.20
2023-04-01T00:41:18.024Z,25.30
2023-04-01T00:43:50.734Z,24.50
2023-04-01T00:46:19.860Z,22.90
2023-04-01T00:48:53.701Z,23.30
2023-04-01T00:51:24.707Z,23.50
2023-04-01T00:53:55.263Z,24.60
2023-04-01T00:56:28.017Z,23.60
2023-04-01T00:59:00.114Z,24.00
2023-04-01T01:01:28.479Z,24.10
2023-04-01T01:03:57.410Z,25.90
2023-04-01T01:06:41.906Z,25.60
2023-04-01T01:09:33.674Z,24.50
2023-04-01T01:12:24.589Z,24.00
2023-04-01T01:14:57.020Z,26.40
2023-04-01T01:17:53.571Z,26.10
2023-04-01T01:20:44.168Z,25.10
2023-04-01T01:23:17.428Z,25.20
2023-04-01T01:26:16.454Z,24.50
2023-04-01T01:29:06.561Z,27.10
2023-04-01T01:31:36.778Z,26.00
2023-04-01T01:34:11.920Z,25.70
2023-04-01T01:36:41.243Z,25.50
2023-04-01T01:39:11.361Z,25.20
2023-04-01T01:41:40.707Z,24.80
2023-04-01T01:44:09.851Z,23.50
2023-04-01T01:46:38.082Z,24.50
2023-04-01T01:49:06.311Z,23.00
2023-04-01T01:51:35.015Z,23.70
2023-04-01T01:54:05.059Z,25.40
2023-04-01T01:56:34.049Z,23.40
2023-04-01T01:59:04.928Z,25.00
2023-04-01T02:01:34.895Z,25.20
2023-04-01T02:04:10.482Z,21.40
2023-04-01T02:07:07.036Z,23.30
2023-04-01T02:09:36.460Z,22.20
2023-04-01T02:12:07.076Z,23.10
2023-04-01T02:17:37.073Z,25.10
2023-04-01T02:22:38.946Z,22.80
2023-04-01T02:25:08.009Z,23.70
2023-04-01T02:27:36.049Z,22.80
2023-04-01T02:30:04.274Z,23.00
2023-04-01T02:32:32.945Z,20.90
2023-04-01T02:35:04.351Z,23.30
2023-04-01T02:37:33.989Z,24.10
2023-04-01T02:40:07.703Z,25.00
2023-04-01T02:42:35.688Z,24.30
2023-04-01T02:45:04.135Z,25.00
2023-04-01T02:47:32.542Z,25.10
2023-04-01T02:50:00.627Z,23.80
2023-04-01T02:52:30.472Z,22.60
2023-04-01T02:55:00.055Z,22.00
2023-04-01T02:57:30.276Z,22.90
2023-04-01T02:59:58.456Z,23.90
2023-04-01T03:02:26.991Z,23.50
2023-04-01T03:04:55.092Z,23.50
2023-04-01T03:07:23.183Z,23.70
2023-04-01T03:09:51.734Z,23.00
2023-04-01T03:12:19.975Z,23.40
2023-04-01T03:14:51.496Z,21.10
2023-04-01T03:17:19.670Z,21.90
2023-04-01T03:19:47.635Z,21.70
2023-04-01T03:22:15.670Z,21.90
2023-04-01T03:24:44.634Z,23.80
2023-04-01T03:27:13.585Z,20.80
2023-04-01T03:29:41.685Z,23.40
2023-04-01T03:32:11.444Z,22.30
2023-04-01T03:34:39.444Z,21.60
2023-04-01T03:37:07.968Z,22.90
2023-04-01T03:39:40.483Z,21.10
2023-04-01T03:42:09.455Z,21.10
2023-04-01T03:44:37.449Z,22.90
2023-04-01T03:47:05.390Z,21.50
2023-04-01T03:49:34.126Z,20.70
2023-04-01T03:52:02.246Z,24.00
2023-04-01T03:54:31.105Z,23.20
2023-04-01T03:56:59.271Z,21.30
2023-04-01T03:59:27.635Z,22.60
2023-04-01T04:01:55.749Z,19.60
2023-04-01T04:04:24.514Z,20.20
2023-04-01T04:06:54.779Z,20.10
2023-04-01T04:09:23.723Z,21.40
2023-04-01T04:11:51.946Z,20.30
2023-04-01T04:14:20.412Z,22.30
2023-04-01T04:16:48.571Z,22.30
2023-04-01T04:19:16.738Z,20.40
2023-04-01T04:21:46.272Z,23.20
2023-04-01T04:24:14.935Z,20.40
2023-04-01T04:27:00.960Z,22.50
2023-04-01T04:29:30.340Z,20.30
2023-04-01T04:32:00.121Z,20.80
2023-04-01T04:34:28.660Z,21.30
2023-04-01T04:36:56.959Z,20.80
2023-04-01T04:39:25.888Z,22.50
2023-04-01T04:41:53.979Z,23.80
2023-04-01T04:44:22.093Z,22.90
2023-04-01T04:46:51.082Z,23.40
2023-04-01T04:49:19.726Z,22.10
2023-04-01T04:51:48.346Z,19.90
2023-04-01T04:54:16.975Z,19.60
2023-04-01T04:56:56.834Z,20.90
2023-04-01T04:59:27.280Z,19.70
2023-04-01T05:02:21.897Z,19.20
2023-04-01T05:04:49.943Z,19.20
2023-04-01T05:07:17.922Z,18.80
2023-04-01T05:09:48.758Z,18.80
2023-04-01T05:12:19.090Z,17.10
2023-04-01T05:15:06.426Z,16.60
2023-04-01T05:17:37.615Z,17.40
2023-04-01T05:20:07.045Z,19.10
2023-04-01T05:22:35.580Z,19.00
2023-04-01T05:25:03.595Z,20.50
2023-04-01T05:27:32.923Z,17.80
2023-04-01T05:30:03.411Z,19.40
2023-04-01T05:32:49.542Z,18.40
2023-04-01T05:35:19.775Z,19.20
2023-04-01T05:37:48.257Z,18.30
2023-04-01T05:40:16.940Z,18.20
2023-04-01T05:42:45.215Z,17.80
2023-04-01T05:45:16.738Z,16.80
2023-04-01T05:47:57.090Z,18.90
2023-04-01T05:50:25.076Z,19.40
2023-04-01T05:52:54.018Z,19.00
2023-04-01T05:55:22.742Z,19.20
2023-04-01T05:57:51.750Z,17.60
2023-04-01T06:00:21.306Z,17.00
2023-04-01T06:03:09.668Z,17.70
2023-04-01T06:05:41.262Z,17.90
2023-04-01T06:08:17.207Z,16.90
2023-04-01T06:10:51.033Z,17.30
2023-04-01T06:13:19.004Z,17.40
2023-04-01T06:16:02.642Z,17.20
2023-04-01T06:18:40.158Z,17.90
2023-04-01T06:21:43.838Z,16.60
2023-04-01T06:24:14.164Z,16.80
2023-04-01T06:27:01.366Z,18.70
2023-04-01T06:29:50.130Z,17.40
2023-04-01T06:32:28.746Z,16.30
2023-04-01T06:35:20.773Z,15.60
2023-04-01T06:37:51.736Z,15.90
2023-04-01T06:40:27.008Z,17.10
2023-04-01T06:42:55.354Z,16.50
2023-04-01T06:45:53.122Z,15.20
2023-04-01T06:48:52.545Z,16.20
2023-04-01T06:51:57.940Z,15.70
2023-04-01T06:54:57.124Z,15.30
2023-04-01T06:58:04.011Z,16.10
2023-04-01T07:00:36.859Z,14.80
2023-04-01T07:03:17.422Z,15.00
2023-04-01T07:05:45.776Z,15.60
2023-04-01T07:08:25.129Z,15.30
2023-04-01T07:11:19.491Z,16.20
2023-04-01T07:14:30.246Z,15.00
2023-04-01T07:17:04.225Z,16.40
2023-04-01T07:19:33.813Z,16.20
2023-04-01T07:22:30.110Z,16.50
2023-04-01T07:25:21.918Z,15.30
2023-04-01T07:28:02.095Z,20.70
2023-04-01T07:30:31.590Z,16.80
2023-04-01T07:33:13.522Z,15.80
2023-04-01T07:35:47.445Z,17.00
2023-04-01T07:38:19.146Z,14.40
2023-04-01T07:40:54.108Z,15.20
2023-04-01T07:43:25.298Z,14.40
2023-04-01T07:46:07.244Z,14.60
2023-04-01T07:48:35.505Z,15.50
2023-04-01T07:51:20.770Z,16.30
2023-04-01T07:53:58.407Z,16.40
2023-04-01T07:56:33.741Z,22.00
2023-04-01T07:59:07.888Z,19.10
2023-04-01T08:02:17.643Z,17.10
2023-04-01T08:05:09.839Z,15.70
2023-04-01T08:07:49.151Z,18.80
2023-04-01T08:10:42.930Z,18.70
2023-04-01T08:13:37.441Z,21.20
2023-04-01T08:16:46.418Z,22.50
2023-04-01T08:19:27.340Z,23.80
2023-04-01T08:21:59.085Z,23.00
2023-04-01T08:24:47.733Z,21.10
2023-04-01T08:27:24.698Z,23.50
2023-04-01T08:29:53.249Z,25.00
2023-04-01T08:32:23.576Z,23.60
2023-04-01T08:34:56.023Z,24.90
2023-04-01T08:37:31.583Z,26.00
2023-04-01T08:40:06.241Z,26.40
2023-04-01T08:42:54.654Z,24.70
2023-04-01T08:45:32.463Z,26.70
2023-04-01T08:48:09.849Z,25.90
2023-04-01T08:50:40.040Z,24.20
2023-04-01T08:53:27.380Z,24.60
2023-04-01T08:56:14.403Z,25.50
2023-04-01T08:59:02.043Z,25.10
2023-04-01T09:02:05.850Z,22.80
2023-04-01T09:05:04.840Z,22.00
2023-04-01T09:07:42.609Z,24.60
2023-04-01T09:10:30.329Z,25.50
2023-04-01T09:13:04.993Z,24.20
2023-04-01T09:15:35.868Z,25.20
2023-04-01T09:18:10.935Z,24.70
2023-04-01T09:20:45.091Z,23.70
2023-04-01T09:23:31.690Z,23.30
2023-04-01T09:26:08.718Z,22.10
2023-04-01T09:28:37.717Z,22.40
2023-04-01T09:31:10.610Z,25.50
2023-04-01T09:33:57.601Z,21.40
2023-04-01T09:36:41.621Z,21.30
2023-04-01T09:39:20.662Z,21.50
2023-04-01T09:42:01.472Z,20.40
2023-04-01T09:44:58.032Z,19.60
2023-04-01T09:47:44.252Z,17.40
2023-04-01T09:50:28.892Z,17.80
2023-04-01T09:52:59.885Z,18.10
2023-04-01T09:55:40.752Z,15.90
2023-04-01T09:58:21.617Z,13.90
2023-04-01T10:02:00.863Z,11.60
2023-04-01T10:04:48.128Z,11.80
2023-04-01T10:07:18.689Z,10.60
2023-04-01T10:10:08.171Z,9.80
2023-04-01T10:12:39.380Z,10.90
2023-04-01T10:15:07.452Z,11.60
2023-04-01T10:17:42.900Z,10.50
2023-04-01T10:20:21.396Z,10.30
2023-04-01T10:22:59.600Z,9.60
2023-04-01T10:25:32.188Z,9.60
2023-04-01T10:28:17.294Z,9.30
2023-04-01T10:31:26.444Z,9.60
2023-04-01T10:34:01.305Z,9.90
2023-04-01T10:36:44.451Z,9.80
2023-04-01T10:39:31.616Z,9.90
2023-04-01T10:42:08.802Z,9.70
2023-04-01T10:44:42.916Z,9.50
2023-04-01T10:47:38.064Z,9.70
2023-04-01T10:50:21.826Z,9.40
2023-04-01T10:52:59.592Z,10.50
2023-04-01T10:56:03.132Z,9.70
2023-04-01T10:59:09.249Z,10.00
2023-04-01T11:02:10.584Z,10.30
2023-04-01T11:04:58.805Z,9.80
2023-04-01T11:08:05.265Z,9.40
2023-04-01T11:10:35.273Z,8.70
2023-04-01T11:13:22.179Z,9.20
2023-04-01T11:16:05.592Z,9.20
2023-04-01T11:18:49.172Z,9.40
2023-04-01T11:21:35.983Z,9.40
2023-04-01T11:24:16.900Z,10.80
2023-04-01T11:27:12.533Z,10.10
2023-04-01T11:30:08.489Z,9.30
2023-04-01T11:32:44.774Z,10.10
2023-04-01T11:35:20.936Z,10.50
2023-04-01T11:37:58.777Z,9.70
2023-04-01T11:41:01.391Z,10.70
2023-04-01T11:43:57.055Z,10.20
2023-04-01T11:46:49.978Z,9.90
2023-04-01T11:49:23.063Z,9.60
2023-04-01T11:52:19.765Z,11.50
2023-04-01T11:55:07.456Z,8.80
2023-04-01T11:57:41.652Z,8.80
2023-04-01T12:00:19.268Z,7.90
2023-04-01T12:03:12.032Z,6.70
2023-04-01T12:05:45.545Z,7.80
2023-04-01T12:08:33.007Z,6.50
2023-04-01T12:11:02.630Z,7.50
2023-04-01T12:13:39.905Z,6.10
2023-04-01T12:16:21.111Z,6.10
2023-04-01T12:18:58.652Z,6.20
2023-04-01T12:21:28.699Z,6.20
2023-04-01T12:24:11.959Z,6.70
2023-04-01T12:26:49.063Z,6.40
2023-04-01T12:29:36.065Z,6.00
2023-04-01T12:32:23.911Z,6.30
2023-04-01T12:34:59.536Z,5.60
2023-04-01T12:37:30.618Z,6.20
2023-04-01T12:40:00.707Z,6.20
2023-04-01T12:42:28.628Z,5.80
2023-04-01T12:45:08.802Z,5.80
2023-04-01T12:47:53.478Z,6.10
2023-04-01T12:50:30.006Z,6.00
2023-04-01T12:53:17.335Z,5.70
2023-04-01T12:55:45.915Z,5.90
2023-04-01T12:58:32.947Z,6.30
2023-04-01T13:01:00.989Z,6.10
2023-04-01T13:03:36.313Z,6.70
2023-04-01T13:06:23.732Z,5.90
2023-04-01T13:09:18.020Z,6.20
2023-04-01T13:11:58.388Z,7.30
2023-04-01T13:14:38.516Z,5.30
2023-04-01T13:17:06.630Z,6.00
2023-04-01T13:20:06.919Z,6.10
2023-04-01T13:22:35.757Z,6.30
2023-04-01T13:25:06.295Z,6.00
2023-04-01T13:27:49.284Z,6.00
2023-04-01T13:30:23.160Z,5.60
2023-04-01T13:32:56.183Z,6.60
2023-04-01T13:35:30.522Z,6.60
2023-04-01T13:37:58.504Z,6.60
2023-04-01T13:40:29.974Z,5.80
2023-04-01T13:42:58.815Z,6.20
2023-04-01T13:45:36.638Z,6.40
2023-04-01T13:48:16.582Z,6.70
2023-04-01T13:51:03.273Z,6.20
2023-04-01T13:53:45.603Z,6.50
2023-04-01T13:56:21.588Z,6.60
2023-04-01T13:58:59.001Z,6.20
2023-04-01T14:01:30.378Z,7.10
2023-04-01T14:04:15.622Z,7.00
2023-04-01T14:07:03.115Z,7.70
2023-04-01T14:09:31.161Z,9.40
2023-04-01T14:12:03.055Z,6.20
2023-04-01T14:14:32.385Z,5.80
2023-04-01T14:17:16.220Z,6.70
2023-04-01T14:19:47.911Z,5.70
2023-04-01T14:24:53.603Z,5.70
2023-04-01T14:27:29.821Z,5.80
2023-04-01T14:30:00.762Z,6.50
2023-04-01T14:32:35.099Z,6.30
2023-04-01T14:35:12.625Z,6.00
2023-04-01T14:37:59.199Z,7.90
2023-04-01T14:40:27.412Z,7.30
2023-04-01T14:43:23.036Z,7.70
2023-04-01T14:46:06.523Z,7.50
2023-04-01T14:48:34.914Z,8.30
2023-04-01T14:51:20.071Z,9.10
2023-04-01T14:54:07.843Z,8.30
2023-04-01T14:56:39.709Z,8.80
2023-04-01T14:59:31.314Z,9.00
2023-04-01T15:02:05.006Z,7.00
2023-04-01T15:04:48.369Z,8.10
2023-04-01T15:07:28.560Z,7.40
2023-04-01T15:10:21.055Z,7.60
2023-04-01T15:13:09.889Z,7.60
2023-04-01T15:15:58.627Z,8.50
2023-04-01T15:18:33.303Z,8.30
2023-04-01T15:21:05.593Z,8.00
2023-04-01T15:23:42.862Z,7.00
2023-04-01T15:26:26.036Z,7.70
2023-04-01T15:29:20.285Z,7.20
2023-04-01T15:31:51.472Z,7.60
2023-04-01T15:34:19.438Z,7.40
2023-04-01T15:37:05.716Z,6.60
2023-04-01T15:39:43.236Z,7.30
2023-04-01T15:42:17.536Z,7.20
2023-04-01T15:45:14.848Z,7.60
2023-04-01T15:48:01.979Z,8.40
2023-04-01T15:50:36.519Z,8.10
2023-04-01T15:53:13.564Z,7.50
2023-04-01T15:56:04.684Z,6.70
2023-04-01T15:58:38.810Z,7.70
2023-04-01T16:01:20.843Z,7.00
2023-04-01T16:04:03.029Z,7.50
2023-04-01T16:06:37.136Z,7.70
2023-04-01T16:09:43.552Z,8.40
2023-04-01T16:12:31.103Z,9.30
2023-04-01T16:15:08.377Z,8.80
2023-04-01T16:17:55.209Z,8.90
2023-04-01T16:20:23.800Z,8.20
2023-04-01T16:22:56.448Z,8.30
2023-04-01T16:25:32.630Z,9.40
2023-04-01T16:28:06.999Z,10.10
2023-04-01T16:30:39.490Z,9.90
2023-04-01T16:33:29.314Z,11.00
2023-04-01T16:36:14.999Z,11.60
2023-04-01T16:38:44.054Z,9.70
2023-04-01T16:41:18.144Z,10.60
2023-04-01T16:43:48.865Z,10.80
2023-04-01T16:46:17.166Z,12.50
2023-04-01T16:49:04.062Z,14.70
2023-04-01T16:51:36.791Z,16.10
2023-04-01T16:54:10.858Z,13.70
2023-04-01T16:56:46.897Z,12.10
2023-04-01T16:59:17.978Z,12.70
2023-04-01T17:01:49.242Z,11.30
2023-04-01T17:04:21.360Z,11.80
2023-04-01T17:09:24.037Z,10.30
2023-04-01T17:11:58.108Z,10.80
2023-04-01T17:14:29.237Z,11.60
2023-04-01T17:17:23.130Z,11.30
2023-04-01T17:20:10.476Z,10.80
2023-04-01T17:22:39.645Z,10.70
2023-04-01T17:25:27.556Z,10.80
2023-04-01T17:27:56.818Z,11.10
2023-04-01T17:30:39.486Z,10.50
2023-04-01T17:33:08.562Z,11.90
2023-04-01T17:35:39.192Z,11.20
2023-04-01T17:38:14.592Z,12.50
2023-04-01T17:40:54.166Z,10.80
2023-04-01T17:43:22.593Z,10.90
2023-04-01T17:45:50.656Z,11.00
2023-04-01T17:48:37.264Z,10.90
2023-04-01T17:51:08.322Z,11.00
2023-04-01T17:54:15.070Z,8.80
2023-04-01T17:56:50.855Z,8.20
2023-04-01T17:59:40.706Z,8.30
2023-04-01T18:02:47.130Z,8.40
2023-04-01T18:05:19.007Z,8.60
2023-04-01T18:07:52.440Z,8.50
2023-04-01T18:10:20.547Z,10.00
2023-04-01T18:12:58.218Z,8.80
2023-04-01T18:15:40.287Z,8.10
2023-04-01T18:18:28.026Z,9.40
2023-04-01T18:21:10.558Z,8.90
2023-04-01T18:23:59.234Z,9.50
2023-04-01T18:26:32.955Z,9.60
2023-04-01T18:29:06.470Z,9.80
2023-04-01T18:31:47.495Z,10.70
2023-04-01T18:34:16.454Z,11.40
2023-04-01T18:37:22.708Z,10.80
2023-04-01T18:39:54.287Z,11.40
2023-04-01T18:42:34.119Z,10.40
2023-04-01T18:45:17.556Z,10.80
2023-04-01T18:47:49.525Z,10.70
2023-04-01T18:50:36.276Z,10.30
2023-04-01T18:53:25.768Z,10.30
2023-04-01T18:56:05.005Z,10.50
2023-04-01T18:58:36.066Z,11.30
2023-04-01T19:01:14.252Z,12.00
2023-04-01T19:03:46.470Z,10.80
2023-04-01T19:06:17.237Z,10.90
2023-04-01T19:08:46.267Z,11.10
2023-04-01T19:11:34.618Z,10.30
2023-04-01T19:14:23.027Z,10.00
2023-04-01T19:17:10.338Z,10.00
2023-04-01T19:22:11.870Z,9.80
2023-04-01T19:24:46.648Z,11.00
2023-04-01T19:27:26.743Z,11.60
2023-04-01T19:30:10.127Z,12.40
2023-04-01T19:32:50.702Z,11.40
2023-04-01T19:35:20.687Z,12.20
2023-04-01T19:37:52.937Z,11.80
2023-04-01T19:40:30.197Z,10.80
2023-04-01T19:43:00.860Z,12.10
2023-04-01T19:45:41.607Z,11.60
2023-04-01T19:48:18.964Z,12.40
2023-04-01T19:51:13.381Z,12.00
2023-04-01T19:54:00.543Z,12.70
2023-04-01T19:56:42.568Z,13.20
2023-04-01T19:59:10.989Z,12.20
2023-04-01T20:01:45.347Z,12.20
2023-04-01T20:04:14.618Z,12.70
2023-04-01T20:06:45.729Z,11.80
2023-04-01T20:09:32.349Z,11.80
2023-04-01T20:12:06.548Z,12.40
2023-04-01T20:14:41.767Z,12.70
2023-04-01T20:17:17.990Z,13.40
2023-04-01T20:20:02.864Z,12.50
2023-04-01T20:22:47.250Z,14.80
2023-04-01T20:25:18.625Z,13.50
2023-04-01T20:27:54.900Z,13.20
2023-04-01T20:30:27.746Z,13.70
2023-04-01T20:33:02.875Z,13.60
2023-04-01T20:35:31.011Z,12.60
2023-04-01T20:38:08.505Z,11.50
2023-04-01T20:40:37.946Z,12.10
2023-04-01T20:43:15.989Z,12.20
2023-04-01T20:46:00.294Z,11.80
2023-04-01T20:48:28.460Z,12.80
2023-04-01T20:51:00.597Z,12.20
2023-04-01T20:53:30.218Z,12.30
2023-04-01T20:55:59.464Z,11.30
2023-04-01T20:58:36.731Z,13.10
2023-04-01T21:01:05.320Z,11.00
2023-04-01T21:03:53.431Z,11.30
2023-04-01T21:06:50.701Z,11.20
2023-04-01T21:09:19.022Z,11.60
2023-04-01T21:11:51.813Z,12.30
2023-04-01T21:14:28.872Z,12.00
2023-04-01T21:17:09.047Z,12.10
2023-04-01T21:19:55.943Z,12.50
2023-04-01T21:22:33.089Z,11.70
2023-04-01T21:25:16.341Z,11.70
2023-04-01T21:27:57.664Z,11.80
2023-04-01T21:30:44.938Z,11.50
2023-04-01T21:33:31.815Z,11.80
2023-04-01T21:36:09.057Z,11.30
2023-04-01T21:38:55.504Z,13.00
2023-04-01T21:41:29.574Z,13.50
2023-04-01T21:44:21.229Z,12.60
2023-04-01T21:46:49.464Z,12.50
2023-04-01T21:49:23.242Z,12.00
2023-04-01T21:51:56.489Z,12.90
2023-04-01T21:54:27.208Z,12.60
2023-04-01T21:57:19.604Z,12.90
2023-04-01T21:59:50.761Z,11.60
2023-04-01T22:02:28.651Z,12.00
2023-04-01T22:05:11.792Z,12.70
2023-04-01T22:07:45.953Z,12.30
2023-04-01T22:10:26.617Z,11.70
2023-04-01T22:13:14.719Z,12.50
2023-04-01T22:16:04.959Z,11.50
2023-04-01T22:18:38.263Z,12.40
2023-04-01T22:21:22.532Z,11.10
2023-04-01T22:23:59.758Z,11.50
2023-04-01T22:26:28.218Z,11.20
2023-04-01T22:29:11.544Z,12.90
2023-04-01T22:32:01.479Z,13.70
2023-04-01T22:34:42.012Z,13.20
2023-04-01T22:37:10.428Z,12.90
2023-04-01T22:39:50.857Z,11.50
2023-04-01T22:42:22.363Z,11.90
2023-04-01T22:44:53.518Z,12.20
2023-04-01T22:47:40.384Z,12.60
2023-04-01T22:50:12.104Z,11.80
2023-04-01T22:52:42.024Z,13.50
2023-04-01T22:55:30.009Z,12.80
2023-04-01T22:58:00.969Z,13.50
2023-04-01T23:00:29.776Z,12.70
2023-04-01T23:03:01.422Z,14.00
2023-04-01T23:05:29.563Z,12.70
2023-04-01T23:08:01.683Z,12.00
2023-04-01T23:10:49.057Z,11.60
2023-04-01T23:13:18.133Z,14.30
2023-04-01T23:15:46.127Z,12.90
2023-04-01T23:18:26.836Z,12.80
2023-04-01T23:20:57.564Z,12.10
2023-04-01T23:23:37.711Z,12.30
2023-04-01T23:26:14.750Z,12.30
2023-04-01T23:28:44.675Z,12.10
2023-04-01T23:31:32.293Z,11.10
2023-04-01T23:34:01.903Z,11.80
2023-04-01T23:36:30.558Z,12.50
2023-04-01T23:39:00.313Z,11.60
2023-04-01T23:41:31.651Z,13.80
2023-04-01T23:44:01.559Z,12.60
2023-04-01T23:46:31.453Z,11.90
2023-04-01T23:48:59.526Z,12.00
2023-04-01T23:51:28.182Z,12.30
2023-04-01T23:54:03.486Z,12.20
2023-04-01T23:56:45.061Z,11.40
2023-04-01T23:59:25.470Z,10.80
